sensor_id;sensor_type;location;lat;lon;timestamp;P1;durP1;ratioP1;P2;durP2;ratioP2
10473;SDS011;5284;50.446;7.904;2023-03-05T00:04:22;34.85;;;12.68;;
10473;SDS011;5284;50.446;7.904;2023-03-05T00:09:27;28.48;;;10.70;;
10473;SDS011;5284;50.446;7.904;2023-03-05T00:14:29;34.75;;;12.05;;
10473;SDS011;5284;50.446;7.904;2023-03-05T00:19:32;33.13;;;10.65;;
10473;SDS011;5284;50.446;7.904;2023-03-05T00:24:37;41.40;;;13.55;;
10473;SDS011;5284;50.446;7.904;2023-03-05T00:29:39;39.90;;;13.32;;
10473;SDS011;5284;50.446;7.904;2023-03-05T00:34:42;36.63;;;11.75;;
10473;SDS011;5284;50.446;7.904;2023-03-05T00:39:46;51.08;;;12.20;;
10473;SDS011;5284;50.446;7.904;2023-03-05T00:44:49;28.55;;;11.45;;
10473;SDS011;5284;50.446;7.904;2023-03-05T00:49:52;46.33;;;11.50;;
10473;SDS011;5284;50.446;7.904;2023-03-05T00:54:57;36.38;;;10.45;;
10473;SDS011;5284;50.446;7.904;2023-03-05T01:00:00;49.47;;;14.38;;
10473;SDS011;5284;50.446;7.904;2023-03-05T01:05:05;23.55;;;9.85;;
10473;SDS011;5284;50.446;7.904;2023-03-05T01:10:13;31.40;;;10.25;;
10473;SDS011;5284;50.446;7.904;2023-03-05T01:15:16;28.65;;;8.43;;
10473;SDS011;5284;50.446;7.904;2023-03-05T01:20:20;24.33;;;7.85;;
10473;SDS011;5284;50.446;7.904;2023-03-05T01:25:25;25.45;;;7.07;;
10473;SDS011;5284;50.446;7.904;2023-03-05T01:30:28;21.23;;;6.93;;
10473;SDS011;5284;50.446;7.904;2023-03-05T01:35:31;29.02;;;7.82;;
10473;SDS011;5284;50.446;7.904;2023-03-05T01:40:35;35.80;;;8.68;;
10473;SDS011;5284;50.446;7.904;2023-03-05T01:45:38;19.48;;;8.00;;
10473;SDS011;5284;50.446;7.904;2023-03-05T01:51:01;25.48;;;8.35;;
10473;SDS011;5284;50.446;7.904;2023-03-05T01:56:06;23.15;;;8.90;;
10473;SDS011;5284;50.446;7.904;2023-03-05T02:01:09;27.42;;;9.13;;
10473;SDS011;5284;50.446;7.904;2023-03-05T02:06:14;37.97;;;9.52;;
10473;SDS011;5284;50.446;7.904;2023-03-05T02:11:20;28.35;;;9.48;;
10473;SDS011;5284;50.446;7.904;2023-03-05T02:16:25;24.38;;;9.40;;
10473;SDS011;5284;50.446;7.904;2023-03-05T02:21:36;29.15;;;9.40;;
10473;SDS011;5284;50.446;7.904;2023-03-05T02:26:42;31.70;;;9.05;;
10473;SDS011;5284;50.446;7.904;2023-03-05T02:31:46;37.63;;;9.40;;
10473;SDS011;5284;50.446;7.904;2023-03-05T02:36:52;23.00;;;8.45;;
10473;SDS011;5284;50.446;7.904;2023-03-05T02:41:57;31.42;;;8.77;;
10473;SDS011;5284;50.446;7.904;2023-03-05T02:47:00;26.65;;;6.82;;
10473;SDS011;5284;50.446;7.904;2023-03-05T02:52:06;41.10;;;9.02;;
10473;SDS011;5284;50.446;7.904;2023-03-05T02:57:10;15.95;;;6.65;;
10473;SDS011;5284;50.446;7.904;2023-03-05T03:02:13;27.95;;;6.22;;
10473;SDS011;5284;50.446;7.904;2023-03-05T03:07:18;22.58;;;6.57;;
10473;SDS011;5284;50.446;7.904;2023-03-05T03:12:21;29.98;;;6.28;;
10473;SDS011;5284;50.446;7.904;2023-03-05T03:17:24;13.95;;;5.32;;
10473;SDS011;5284;50.446;7.904;2023-03-05T03:22:28;19.70;;;6.53;;
10473;SDS011;5284;50.446;7.904;2023-03-05T03:27:31;26.38;;;7.75;;
10473;SDS011;5284;50.446;7.904;2023-03-05T03:32:34;17.35;;;8.25;;
10473;SDS011;5284;50.446;7.904;2023-03-05T03:37:39;29.92;;;9.48;;
10473;SDS011;5284;50.446;7.904;2023-03-05T03:42:41;27.65;;;7.35;;
10473;SDS011;5284;50.446;7.904;2023-03-05T03:47:44;34.50;;;10.30;;
10473;SDS011;5284;50.446;7.904;2023-03-05T03:52:50;33.90;;;8.63;;
10473;SDS011;5284;50.446;7.904;2023-03-05T03:57:53;27.10;;;7.90;;
10473;SDS011;5284;50.446;7.904;2023-03-05T04:02:56;27.67;;;7.40;;
10473;SDS011;5284;50.446;7.904;2023-03-05T04:08:00;25.42;;;9.27;;
10473;SDS011;5284;50.446;7.904;2023-03-05T04:13:03;29.75;;;8.90;;
10473;SDS011;5284;50.446;7.904;2023-03-05T04:18:08;23.48;;;9.35;;
10473;SDS011;5284;50.446;7.904;2023-03-05T04:23:12;27.60;;;7.68;;
10473;SDS011;5284;50.446;7.904;2023-03-05T04:28:15;23.60;;;6.82;;
10473;SDS011;5284;50.446;7.904;2023-03-05T04:33:19;18.15;;;6.60;;
10473;SDS011;5284;50.446;7.904;2023-03-05T04:38:23;22.15;;;6.38;;
10473;SDS011;5284;50.446;7.904;2023-03-05T04:43:26;19.30;;;6.00;;
10473;SDS011;5284;50.446;7.904;2023-03-05T04:48:28;32.22;;;10.48;;
10473;SDS011;5284;50.446;7.904;2023-03-05T04:53:33;38.88;;;13.30;;
10473;SDS011;5284;50.446;7.904;2023-03-05T04:58:36;36.10;;;13.90;;
10473;SDS011;5284;50.446;7.904;2023-03-05T05:03:39;41.75;;;13.45;;
10473;SDS011;5284;50.446;7.904;2023-03-05T05:08:44;43.33;;;14.27;;
10473;SDS011;5284;50.446;7.904;2023-03-05T05:13:47;38.65;;;13.50;;
10473;SDS011;5284;50.446;7.904;2023-03-05T05:18:50;35.90;;;12.98;;
10473;SDS011;5284;50.446;7.904;2023-03-05T05:23:54;33.10;;;11.57;;
10473;SDS011;5284;50.446;7.904;2023-03-05T05:28:57;31.50;;;10.98;;
10473;SDS011;5284;50.446;7.904;2023-03-05T05:33:59;31.67;;;9.90;;
10473;SDS011;5284;50.446;7.904;2023-03-05T05:39:04;20.67;;;9.35;;
10473;SDS011;5284;50.446;7.904;2023-03-05T05:44:07;22.23;;;9.30;;
10473;SDS011;5284;50.446;7.904;2023-03-05T05:49:10;22.02;;;7.20;;
10473;SDS011;5284;50.446;7.904;2023-03-05T05:54:14;20.98;;;7.82;;
10473;SDS011;5284;50.446;7.904;2023-03-05T05:59:17;19.77;;;6.78;;
10473;SDS011;5284;50.446;7.904;2023-03-05T06:04:20;18.13;;;7.20;;
10473;SDS011;5284;50.446;7.904;2023-03-05T06:09:24;17.65;;;7.07;;
10473;SDS011;5284;50.446;7.904;2023-03-05T06:14:27;23.52;;;7.40;;
10473;SDS011;5284;50.446;7.904;2023-03-05T06:19:31;25.00;;;7.32;;
10473;SDS011;5284;50.446;7.904;2023-03-05T06:24:35;23.05;;;8.85;;
10473;SDS011;5284;50.446;7.904;2023-03-05T06:29:38;23.08;;;7.88;;
10473;SDS011;5284;50.446;7.904;2023-03-05T06:34:41;25.52;;;10.05;;
10473;SDS011;5284;50.446;7.904;2023-03-05T06:39:45;23.85;;;8.02;;
10473;SDS011;5284;50.446;7.904;2023-03-05T06:44:48;30.92;;;8.93;;
10473;SDS011;5284;50.446;7.904;2023-03-05T06:49:51;25.38;;;9.30;;
10473;SDS011;5284;50.446;7.904;2023-03-05T06:54:55;26.42;;;11.65;;
10473;SDS011;5284;50.446;7.904;2023-03-05T06:59:58;31.33;;;12.32;;
10473;SDS011;5284;50.446;7.904;2023-03-05T07:05:01;28.48;;;11.77;;
10473;SDS011;5284;50.446;7.904;2023-03-05T07:10:06;33.15;;;10.10;;
10473;SDS011;5284;50.446;7.904;2023-03-05T07:15:10;27.98;;;9.70;;
10473;SDS011;5284;50.446;7.904;2023-03-05T07:20:14;31.52;;;9.13;;
10473;SDS011;5284;50.446;7.904;2023-03-05T07:25:18;24.90;;;10.55;;
10473;SDS011;5284;50.446;7.904;2023-03-05T07:30:21;39.63;;;14.32;;
10473;SDS011;5284;50.446;7.904;2023-03-05T07:35:25;26.33;;;9.07;;
10473;SDS011;5284;50.446;7.904;2023-03-05T07:40:29;29.58;;;8.88;;
10473;SDS011;5284;50.446;7.904;2023-03-05T07:45:32;19.90;;;9.00;;
10473;SDS011;5284;50.446;7.904;2023-03-05T07:50:34;34.80;;;10.15;;
10473;SDS011;5284;50.446;7.904;2023-03-05T07:55:42;23.35;;;9.13;;
10473;SDS011;5284;50.446;7.904;2023-03-05T08:00:45;29.95;;;9.57;;
10473;SDS011;5284;50.446;7.904;2023-03-05T08:05:48;27.80;;;11.10;;
10473;SDS011;5284;50.446;7.904;2023-03-05T08:10:52;26.52;;;8.77;;
10473;SDS011;5284;50.446;7.904;2023-03-05T08:15:55;26.35;;;10.30;;
10473;SDS011;5284;50.446;7.904;2023-03-05T08:20:58;30.35;;;9.65;;
10473;SDS011;5284;50.446;7.904;2023-03-05T08:26:02;24.55;;;8.75;;
10473;SDS011;5284;50.446;7.904;2023-03-05T08:31:14;27.08;;;8.88;;
10473;SDS011;5284;50.446;7.904;2023-03-05T08:36:18;22.17;;;9.38;;
10473;SDS011;5284;50.446;7.904;2023-03-05T08:41:23;22.95;;;9.00;;
10473;SDS011;5284;50.446;7.904;2023-03-05T08:46:26;22.70;;;8.60;;
10473;SDS011;5284;50.446;7.904;2023-03-05T08:51:28;28.02;;;8.25;;
10473;SDS011;5284;50.446;7.904;2023-03-05T08:56:34;27.73;;;10.35;;
10473;SDS011;5284;50.446;7.904;2023-03-05T09:01:37;17.13;;;7.45;;
10473;SDS011;5284;50.446;7.904;2023-03-05T09:06:40;25.80;;;8.35;;
10473;SDS011;5284;50.446;7.904;2023-03-05T09:11:44;27.38;;;9.45;;
10473;SDS011;5284;50.446;7.904;2023-03-05T09:16:47;23.10;;;9.25;;
10473;SDS011;5284;50.446;7.904;2023-03-05T09:21:50;26.95;;;8.32;;
10473;SDS011;5284;50.446;7.904;2023-03-05T09:26:58;29.33;;;8.68;;
10473;SDS011;5284;50.446;7.904;2023-03-05T09:32:01;15.63;;;5.75;;
10473;SDS011;5284;50.446;7.904;2023-03-05T09:37:05;16.70;;;5.88;;
10473;SDS011;5284;50.446;7.904;2023-03-05T09:42:19;18.48;;;5.20;;
10473;SDS011;5284;50.446;7.904;2023-03-05T09:47:36;14.95;;;6.05;;
10473;SDS011;5284;50.446;7.904;2023-03-05T09:52:53;17.52;;;7.88;;
10473;SDS011;5284;50.446;7.904;2023-03-05T09:58:01;14.02;;;4.25;;
10473;SDS011;5284;50.446;7.904;2023-03-05T10:03:09;17.85;;;5.18;;
10473;SDS011;5284;50.446;7.904;2023-03-05T10:08:17;10.07;;;4.05;;
10473;SDS011;5284;50.446;7.904;2023-03-05T10:13:26;12.73;;;3.63;;
10473;SDS011;5284;50.446;7.904;2023-03-05T10:18:35;10.88;;;4.22;;
10473;SDS011;5284;50.446;7.904;2023-03-05T10:23:46;6.72;;;3.08;;
10473;SDS011;5284;50.446;7.904;2023-03-05T10:29:10;9.85;;;3.45;;
10473;SDS011;5284;50.446;7.904;2023-03-05T10:34:33;10.73;;;3.30;;
10473;SDS011;5284;50.446;7.904;2023-03-05T10:39:53;21.02;;;8.38;;
10473;SDS011;5284;50.446;7.904;2023-03-05T10:45:13;10.80;;;3.47;;
10473;SDS011;5284;50.446;7.904;2023-03-05T10:50:19;4.97;;;2.95;;
10473;SDS011;5284;50.446;7.904;2023-03-05T10:55:24;16.83;;;3.05;;
10473;SDS011;5284;50.446;7.904;2023-03-05T11:00:28;9.40;;;3.30;;
10473;SDS011;5284;50.446;7.904;2023-03-05T11:05:39;5.15;;;2.58;;
10473;SDS011;5284;50.446;7.904;2023-03-05T11:10:44;7.10;;;2.42;;
10473;SDS011;5284;50.446;7.904;2023-03-05T11:15:58;8.13;;;3.13;;
10473;SDS011;5284;50.446;7.904;2023-03-05T11:21:06;15.77;;;5.32;;
10473;SDS011;5284;50.446;7.904;2023-03-05T11:26:17;16.85;;;5.45;;
10473;SDS011;5284;50.446;7.904;2023-03-05T11:31:25;9.88;;;4.50;;
10473;SDS011;5284;50.446;7.904;2023-03-05T11:36:30;14.13;;;4.35;;
10473;SDS011;5284;50.446;7.904;2023-03-05T11:41:35;14.15;;;3.95;;
10473;SDS011;5284;50.446;7.904;2023-03-05T11:46:42;12.30;;;4.72;;
10473;SDS011;5284;50.446;7.904;2023-03-05T11:51:51;8.93;;;3.20;;
10473;SDS011;5284;50.446;7.904;2023-03-05T11:56:59;12.13;;;4.20;;
10473;SDS011;5284;50.446;7.904;2023-03-05T12:02:08;10.68;;;4.50;;
10473;SDS011;5284;50.446;7.904;2023-03-05T12:07:21;18.03;;;5.40;;
10473;SDS011;5284;50.446;7.904;2023-03-05T12:12:35;12.23;;;5.38;;
10473;SDS011;5284;50.446;7.904;2023-03-05T12:17:45;16.67;;;5.55;;
10473;SDS011;5284;50.446;7.904;2023-03-05T12:22:56;13.38;;;6.95;;
10473;SDS011;5284;50.446;7.904;2023-03-05T12:27:59;16.15;;;7.18;;
10473;SDS011;5284;50.446;7.904;2023-03-05T12:33:05;17.67;;;6.35;;
10473;SDS011;5284;50.446;7.904;2023-03-05T12:38:30;14.13;;;6.32;;
10473;SDS011;5284;50.446;7.904;2023-03-05T12:43:36;14.63;;;5.57;;
10473;SDS011;5284;50.446;7.904;2023-03-05T12:48:42;10.02;;;5.03;;
10473;SDS011;5284;50.446;7.904;2023-03-05T12:53:50;12.90;;;6.85;;
10473;SDS011;5284;50.446;7.904;2023-03-05T13:03:59;17.58;;;6.75;;
10473;SDS011;5284;50.446;7.904;2023-03-05T13:09:11;9.85;;;5.65;;
10473;SDS011;5284;50.446;7.904;2023-03-05T13:14:29;13.27;;;5.70;;
10473;SDS011;5284;50.446;7.904;2023-03-05T13:19:35;10.97;;;4.97;;
10473;SDS011;5284;50.446;7.904;2023-03-05T13:24:44;9.45;;;4.43;;
10473;SDS011;5284;50.446;7.904;2023-03-05T13:29:51;19.65;;;5.45;;
10473;SDS011;5284;50.446;7.904;2023-03-05T13:34:55;12.80;;;6.17;;
10473;SDS011;5284;50.446;7.904;2023-03-05T13:40:02;8.10;;;5.35;;
10473;SDS011;5284;50.446;7.904;2023-03-05T13:45:25;14.07;;;5.45;;
10473;SDS011;5284;50.446;7.904;2023-03-05T13:50:29;12.05;;;4.97;;
10473;SDS011;5284;50.446;7.904;2023-03-05T13:55:34;30.67;;;9.73;;
10473;SDS011;5284;50.446;7.904;2023-03-05T14:00:37;22.52;;;6.63;;
10473;SDS011;5284;50.446;7.904;2023-03-05T14:05:42;10.52;;;4.28;;
10473;SDS011;5284;50.446;7.904;2023-03-05T14:10:47;13.65;;;5.55;;
10473;SDS011;5284;50.446;7.904;2023-03-05T14:16:04;11.45;;;4.47;;
10473;SDS011;5284;50.446;7.904;2023-03-05T14:21:08;7.30;;;4.63;;
10473;SDS011;5284;50.446;7.904;2023-03-05T14:26:18;26.25;;;8.60;;
10473;SDS011;5284;50.446;7.904;2023-03-05T14:31:33;11.80;;;4.45;;
10473;SDS011;5284;50.446;7.904;2023-03-05T14:36:40;11.82;;;4.70;;
10473;SDS011;5284;50.446;7.904;2023-03-05T14:41:50;7.93;;;4.70;;
10473;SDS011;5284;50.446;7.904;2023-03-05T14:46:53;10.55;;;3.92;;
10473;SDS011;5284;50.446;7.904;2023-03-05T14:51:56;32.08;;;13.85;;
10473;SDS011;5284;50.446;7.904;2023-03-05T14:57:00;8.35;;;3.65;;
10473;SDS011;5284;50.446;7.904;2023-03-05T15:02:05;16.38;;;7.53;;
10473;SDS011;5284;50.446;7.904;2023-03-05T15:07:14;16.83;;;6.22;;
10473;SDS011;5284;50.446;7.904;2023-03-05T15:12:20;12.32;;;6.30;;
10473;SDS011;5284;50.446;7.904;2023-03-05T15:17:27;9.73;;;5.45;;
10473;SDS011;5284;50.446;7.904;2023-03-05T15:22:35;11.27;;;6.07;;
10473;SDS011;5284;50.446;7.904;2023-03-05T15:27:40;14.85;;;5.72;;
10473;SDS011;5284;50.446;7.904;2023-03-05T15:32:43;16.38;;;5.90;;
10473;SDS011;5284;50.446;7.904;2023-03-05T15:37:45;12.65;;;5.55;;
10473;SDS011;5284;50.446;7.904;2023-03-05T15:42:51;19.73;;;6.60;;
10473;SDS011;5284;50.446;7.904;2023-03-05T15:47:53;12.30;;;6.88;;
10473;SDS011;5284;50.446;7.904;2023-03-05T15:52:56;15.57;;;7.10;;
10473;SDS011;5284;50.446;7.904;2023-03-05T15:58:01;8.80;;;5.53;;
10473;SDS011;5284;50.446;7.904;2023-03-05T16:03:10;18.35;;;6.35;;
10473;SDS011;5284;50.446;7.904;2023-03-05T16:08:13;17.88;;;7.20;;
10473;SDS011;5284;50.446;7.904;2023-03-05T16:13:17;20.45;;;8.38;;
10473;SDS011;5284;50.446;7.904;2023-03-05T16:18:22;16.95;;;8.30;;
10473;SDS011;5284;50.446;7.904;2023-03-05T16:23:26;18.73;;;8.13;;
10473;SDS011;5284;50.446;7.904;2023-03-05T16:28:31;23.52;;;8.60;;
10473;SDS011;5284;50.446;7.904;2023-03-05T16:33:34;14.65;;;7.25;;
10473;SDS011;5284;50.446;7.904;2023-03-05T16:38:37;17.35;;;8.68;;
10473;SDS011;5284;50.446;7.904;2023-03-05T16:43:41;19.77;;;8.75;;
10473;SDS011;5284;50.446;7.904;2023-03-05T16:48:47;22.63;;;10.13;;
10473;SDS011;5284;50.446;7.904;2023-03-05T16:53:50;21.60;;;11.35;;
10473;SDS011;5284;50.446;7.904;2023-03-05T16:58:57;21.38;;;10.40;;
10473;SDS011;5284;50.446;7.904;2023-03-05T17:04:00;23.05;;;11.40;;
10473;SDS011;5284;50.446;7.904;2023-03-05T17:09:04;32.30;;;16.73;;
10473;SDS011;5284;50.446;7.904;2023-03-05T17:14:09;44.22;;;16.88;;
10473;SDS011;5284;50.446;7.904;2023-03-05T17:19:12;24.88;;;12.63;;
10473;SDS011;5284;50.446;7.904;2023-03-05T17:24:15;26.48;;;14.10;;
10473;SDS011;5284;50.446;7.904;2023-03-05T17:29:20;19.83;;;12.57;;
10473;SDS011;5284;50.446;7.904;2023-03-05T17:34:23;25.63;;;11.25;;
10473;SDS011;5284;50.446;7.904;2023-03-05T17:39:36;27.38;;;14.02;;
10473;SDS011;5284;50.446;7.904;2023-03-05T17:44:43;31.83;;;15.68;;
10473;SDS011;5284;50.446;7.904;2023-03-05T17:49:46;28.42;;;13.73;;
10473;SDS011;5284;50.446;7.904;2023-03-05T17:54:51;26.35;;;15.07;;
10473;SDS011;5284;50.446;7.904;2023-03-05T17:59:57;38.78;;;17.95;;
10473;SDS011;5284;50.446;7.904;2023-03-05T18:05:00;25.73;;;13.93;;
10473;SDS011;5284;50.446;7.904;2023-03-05T18:10:04;24.42;;;13.43;;
10473;SDS011;5284;50.446;7.904;2023-03-05T18:15:12;26.40;;;13.25;;
10473;SDS011;5284;50.446;7.904;2023-03-05T18:20:21;29.50;;;14.87;;
10473;SDS011;5284;50.446;7.904;2023-03-05T18:25:27;39.33;;;18.02;;
10473;SDS011;5284;50.446;7.904;2023-03-05T18:30:34;22.02;;;12.80;;
10473;SDS011;5284;50.446;7.904;2023-03-05T18:35:38;38.65;;;17.13;;
10473;SDS011;5284;50.446;7.904;2023-03-05T18:40:41;30.95;;;16.48;;
10473;SDS011;5284;50.446;7.904;2023-03-05T18:45:46;54.10;;;24.35;;
10473;SDS011;5284;50.446;7.904;2023-03-05T18:50:50;45.40;;;22.05;;
10473;SDS011;5284;50.446;7.904;2023-03-05T18:55:54;35.50;;;17.10;;
10473;SDS011;5284;50.446;7.904;2023-03-05T19:00:58;27.55;;;13.38;;
10473;SDS011;5284;50.446;7.904;2023-03-05T19:06:03;32.00;;;16.20;;
10473;SDS011;5284;50.446;7.904;2023-03-05T19:11:12;34.45;;;17.38;;
10473;SDS011;5284;50.446;7.904;2023-03-05T19:16:19;25.15;;;14.23;;
10473;SDS011;5284;50.446;7.904;2023-03-05T19:21:23;23.53;;;12.97;;
10473;SDS011;5284;50.446;7.904;2023-03-05T19:26:26;34.42;;;15.27;;
10473;SDS011;5284;50.446;7.904;2023-03-05T19:31:30;21.75;;;12.85;;
10473;SDS011;5284;50.446;7.904;2023-03-05T19:36:33;22.20;;;12.10;;
10473;SDS011;5284;50.446;7.904;2023-03-05T19:41:36;21.95;;;12.82;;
10473;SDS011;5284;50.446;7.904;2023-03-05T19:46:41;26.58;;;12.93;;
10473;SDS011;5284;50.446;7.904;2023-03-05T19:51:44;25.67;;;13.52;;
10473;SDS011;5284;50.446;7.904;2023-03-05T19:56:48;26.65;;;13.48;;
10473;SDS011;5284;50.446;7.904;2023-03-05T20:01:55;32.75;;;16.65;;
10473;SDS011;5284;50.446;7.904;2023-03-05T20:06:58;47.83;;;21.50;;
10473;SDS011;5284;50.446;7.904;2023-03-05T20:12:01;55.15;;;24.75;;
10473;SDS011;5284;50.446;7.904;2023-03-05T20:17:07;58.33;;;27.73;;
10473;SDS011;5284;50.446;7.904;2023-03-05T20:22:10;66.28;;;30.40;;
10473;SDS011;5284;50.446;7.904;2023-03-05T20:27:12;61.30;;;25.58;;
10473;SDS011;5284;50.446;7.904;2023-03-05T20:32:17;58.60;;;26.52;;
10473;SDS011;5284;50.446;7.904;2023-03-05T20:37:20;52.35;;;25.75;;
10473;SDS011;5284;50.446;7.904;2023-03-05T20:42:27;47.88;;;24.25;;
10473;SDS011;5284;50.446;7.904;2023-03-05T20:47:32;46.15;;;20.83;;
10473;SDS011;5284;50.446;7.904;2023-03-05T20:52:40;45.50;;;22.08;;
10473;SDS011;5284;50.446;7.904;2023-03-05T20:57:43;48.88;;;23.33;;
10473;SDS011;5284;50.446;7.904;2023-03-05T21:02:48;56.83;;;24.95;;
10473;SDS011;5284;50.446;7.904;2023-03-05T21:07:52;44.33;;;22.83;;
10473;SDS011;5284;50.446;7.904;2023-03-05T21:12:55;55.20;;;24.98;;
10473;SDS011;5284;50.446;7.904;2023-03-05T21:18:02;38.35;;;20.70;;
10473;SDS011;5284;50.446;7.904;2023-03-05T21:23:08;43.33;;;21.13;;
10473;SDS011;5284;50.446;7.904;2023-03-05T21:28:11;35.05;;;18.20;;
10473;SDS011;5284;50.446;7.904;2023-03-05T21:33:19;39.35;;;18.92;;
10473;SDS011;5284;50.446;7.904;2023-03-05T21:38:24;31.85;;;16.23;;
10473;SDS011;5284;50.446;7.904;2023-03-05T21:43:30;29.08;;;15.68;;
10473;SDS011;5284;50.446;7.904;2023-03-05T21:48:35;33.05;;;15.60;;
10473;SDS011;5284;50.446;7.904;2023-03-05T21:53:38;38.22;;;16.65;;
10473;SDS011;5284;50.446;7.904;2023-03-05T21:58:41;40.95;;;16.60;;
10473;SDS011;5284;50.446;7.904;2023-03-05T22:03:45;45.28;;;19.67;;
10473;SDS011;5284;50.446;7.904;2023-03-05T22:08:48;44.13;;;20.02;;
10473;SDS011;5284;50.446;7.904;2023-03-05T22:13:51;42.58;;;20.70;;
10473;SDS011;5284;50.446;7.904;2023-03-05T22:18:55;38.38;;;19.55;;
10473;SDS011;5284;50.446;7.904;2023-03-05T22:23:58;40.67;;;19.38;;
10473;SDS011;5284;50.446;7.904;2023-03-05T22:29:01;37.88;;;18.65;;
10473;SDS011;5284;50.446;7.904;2023-03-05T22:34:06;67.65;;;25.38;;
10473;SDS011;5284;50.446;7.904;2023-03-05T22:39:09;43.38;;;20.05;;
10473;SDS011;5284;50.446;7.904;2023-03-05T22:44:12;63.25;;;27.30;;
10473;SDS011;5284;50.446;7.904;2023-03-05T22:49:17;45.47;;;22.55;;
10473;SDS011;5284;50.446;7.904;2023-03-05T22:54:20;41.22;;;19.67;;
10473;SDS011;5284;50.446;7.904;2023-03-05T22:59:22;46.67;;;19.95;;
10473;SDS011;5284;50.446;7.904;2023-03-05T23:04:27;39.08;;;18.73;;
10473;SDS011;5284;50.446;7.904;2023-03-05T23:09:40;42.83;;;20.80;;
10473;SDS011;5284;50.446;7.904;2023-03-05T23:14:43;34.42;;;18.98;;
10473;SDS011;5284;50.446;7.904;2023-03-05T23:19:47;42.03;;;18.58;;
10473;SDS011;5284;50.446;7.904;2023-03-05T23:24:50;40.13;;;19.85;;
10473;SDS011;5284;50.446;7.904;2023-03-05T23:29:53;64.70;;;25.27;;
10473;SDS011;5284;50.446;7.904;2023-03-05T23:35:10;46.33;;;23.90;;
10473;SDS011;5284;50.446;7.904;2023-03-05T23:40:16;48.72;;;22.08;;
10473;SDS011;5284;50.446;7.904;2023-03-05T23:45:21;54.55;;;22.27;;
10473;SDS011;5284;50.446;7.904;2023-03-05T23:50:26;49.25;;;20.23;;
10473;SDS011;5284;50.446;7.904;2023-03-05T23:55:31;49.83;;;18.87;;
